createdAt,value
2022-10-13T13:14:34.326Z,4.20
2022-10-13T13:24:39.900Z,3.78
2022-10-13T13:29:42.645Z,6.35
2022-10-13T13:33:02.751Z,5.55
2022-10-13T13:35:29.288Z,5.55
2022-10-13T13:37:55.806Z,5.50
2022-10-13T13:43:21.631Z,6.22
2022-10-13T13:45:48.307Z,5.25
2022-10-13T13:48:15.000Z,3.47
2022-10-13T13:50:42.992Z,5.40
2022-10-13T13:53:09.623Z,5.60
2022-10-13T13:55:36.519Z,5.90
2022-10-13T13:58:03.514Z,5.70
2022-10-13T14:00:30.169Z,5.53
2022-10-13T14:02:57.836Z,5.93
2022-10-13T14:05:24.733Z,5.78
2022-10-13T14:07:54.093Z,5.88
2022-10-13T14:10:20.742Z,5.70
2022-10-13T14:12:47.510Z,5.72
2022-10-13T14:15:14.200Z,6.20
2022-10-13T14:17:40.788Z,6.05
2022-10-13T14:20:07.928Z,5.97
2022-10-13T14:22:37.539Z,5.78
2022-10-13T14:25:06.499Z,6.05
2022-10-13T14:27:35.129Z,5.45
2022-10-13T14:30:05.468Z,5.93
2022-10-13T14:32:32.304Z,6.28
2022-10-13T14:34:59.423Z,5.97
2022-10-13T14:37:30.452Z,6.18
2022-10-13T14:39:59.776Z,5.22
2022-10-13T14:42:26.656Z,6.50
2022-10-13T14:44:53.370Z,5.93
2022-10-13T14:47:20.231Z,4.85
2022-10-13T14:49:47.091Z,5.68
2022-10-13T14:52:14.017Z,5.22
2022-10-13T14:54:44.655Z,5.63
2022-10-13T14:57:15.792Z,5.38
2022-10-13T14:59:45.576Z,5.65
2022-10-13T15:02:13.453Z,5.57
2022-10-13T15:04:40.528Z,5.63
2022-10-13T15:07:07.481Z,6.07
2022-10-13T15:09:45.492Z,6.13
2022-10-13T15:12:19.591Z,5.70
2022-10-13T15:14:46.405Z,5.68
2022-10-13T15:17:13.016Z,5.85
2022-10-13T15:19:39.581Z,6.88
2022-10-13T15:22:06.171Z,5.63
2022-10-13T15:24:32.768Z,6.32
2022-10-13T15:26:59.533Z,6.70
2022-10-13T15:29:27.487Z,6.45
2022-10-13T15:32:07.720Z,6.47
2022-10-13T15:34:34.406Z,6.50
2022-10-13T15:37:00.998Z,5.78
2022-10-13T15:39:27.629Z,6.13
2022-10-13T15:41:54.208Z,6.63
2022-10-13T15:44:21.418Z,6.32
2022-10-13T15:47:06.601Z,5.80
2022-10-13T15:49:39.031Z,6.68
2022-10-13T15:52:06.144Z,6.35
2022-10-13T15:54:32.941Z,7.07
2022-10-13T15:56:59.810Z,6.30
2022-10-13T15:59:26.421Z,7.05
2022-10-13T16:01:53.036Z,6.30
2022-10-13T16:04:19.893Z,6.93
2022-10-13T16:06:46.511Z,7.38
2022-10-13T16:09:13.188Z,6.60
2022-10-13T16:11:39.878Z,6.85
2022-10-13T16:14:06.472Z,6.32
2022-10-13T16:16:33.050Z,6.75
2022-10-13T16:19:00.309Z,6.95
2022-10-13T16:21:27.594Z,6.88
2022-10-13T16:23:54.355Z,7.00
2022-10-13T16:26:21.403Z,6.93
2022-10-13T16:28:48.403Z,7.07
2022-10-13T16:31:18.019Z,7.28
2022-10-13T16:33:45.856Z,7.60
2022-10-13T16:36:15.076Z,7.53
2022-10-13T16:38:45.650Z,8.27
2022-10-13T16:41:15.273Z,7.60
2022-10-13T16:43:42.778Z,7.97
2022-10-13T16:46:13.486Z,8.07
2022-10-13T16:48:41.261Z,8.32
2022-10-13T16:51:11.598Z,8.30
2022-10-13T16:53:38.866Z,8.82
2022-10-13T16:56:06.902Z,7.70
2022-10-13T16:58:33.817Z,8.30
2022-10-13T17:01:09.743Z,8.30
2022-10-13T17:03:40.091Z,8.77
2022-10-13T17:06:07.173Z,8.23
2022-10-13T17:08:33.970Z,8.60
2022-10-13T17:11:01.566Z,8.40
2022-10-13T17:13:28.604Z,8.75
2022-10-13T17:15:56.704Z,9.02
2022-10-13T17:18:24.892Z,9.43
2022-10-13T17:21:00.393Z,10.60
2022-10-13T17:23:28.408Z,10.18
2022-10-13T17:25:56.188Z,10.43
2022-10-13T17:28:23.337Z,10.32
2022-10-13T17:31:01.302Z,10.50
2022-10-13T17:33:29.213Z,10.07
2022-10-13T17:36:09.201Z,10.27
2022-10-13T17:38:35.781Z,10.32
2022-10-13T17:41:04.689Z,10.07
2022-10-13T17:43:32.468Z,10.93
2022-10-13T17:46:37.332Z,10.07
2022-10-13T17:49:06.084Z,11.20
2022-10-13T17:51:32.787Z,11.10
2022-10-13T17:54:00.324Z,10.43
2022-10-13T17:56:27.239Z,10.13
2022-10-13T17:58:53.922Z,10.52
2022-10-13T18:01:27.720Z,12.73
2022-10-13T18:03:57.290Z,44.33
2022-10-13T18:06:26.666Z,44.35
2022-10-13T18:08:53.261Z,20.85
2022-10-13T18:11:22.976Z,19.80
2022-10-13T18:13:49.831Z,16.35
2022-10-13T18:16:22.443Z,16.02
2022-10-13T18:18:51.357Z,15.32
2022-10-13T18:21:22.526Z,16.13
2022-10-13T18:23:49.496Z,14.88
2022-10-13T18:26:19.711Z,17.08
2022-10-13T18:28:48.954Z,15.23
2022-10-13T18:31:24.364Z,18.63
2022-10-13T18:33:52.624Z,19.92
2022-10-13T18:36:23.773Z,18.67
2022-10-13T18:38:51.809Z,19.30
2022-10-13T18:41:20.338Z,17.05
2022-10-13T18:43:46.986Z,17.85
2022-10-13T18:46:13.686Z,16.10
2022-10-13T18:48:41.058Z,33.28
2022-10-13T18:51:14.061Z,36.25
2022-10-13T18:53:42.838Z,18.50
2022-10-13T18:56:13.496Z,19.45
2022-10-13T18:58:40.502Z,20.20
2022-10-13T19:01:13.390Z,23.65
2022-10-13T19:03:43.034Z,23.60
2022-10-13T19:06:12.168Z,21.73
2022-10-13T19:08:38.902Z,20.45
2022-10-13T19:11:19.733Z,21.13
2022-10-13T19:13:47.881Z,17.75
2022-10-13T19:16:16.764Z,19.95
2022-10-13T19:18:44.410Z,19.08
2022-10-13T19:21:14.526Z,18.70
2022-10-13T19:23:41.562Z,19.70
2022-10-13T19:26:15.217Z,19.25
2022-10-13T19:28:43.667Z,19.42
2022-10-13T19:31:22.372Z,20.40
2022-10-13T19:33:53.050Z,18.48
2022-10-13T19:36:26.308Z,20.73
2022-10-13T19:38:53.498Z,18.52
2022-10-13T19:41:20.429Z,19.45
2022-10-13T19:43:47.158Z,19.98
2022-10-13T19:46:14.109Z,19.85
2022-10-13T19:48:40.917Z,21.90
2022-10-13T19:51:09.271Z,20.85
2022-10-13T19:53:36.594Z,22.25
2022-10-13T19:56:03.496Z,24.17
2022-10-13T19:58:30.209Z,20.67
2022-10-13T20:01:02.920Z,22.10
2022-10-13T20:03:29.690Z,20.08
2022-10-13T20:05:56.265Z,22.08
2022-10-13T20:08:22.881Z,20.92
2022-10-13T20:10:49.571Z,21.50
2022-10-13T20:13:16.154Z,22.48
2022-10-13T20:15:46.142Z,23.92
2022-10-13T20:18:13.226Z,22.73
2022-10-13T20:20:41.542Z,21.40
2022-10-13T20:23:08.609Z,19.20
2022-10-13T20:25:38.871Z,19.95
2022-10-13T20:28:06.331Z,21.58
2022-10-13T20:30:33.636Z,21.13
2022-10-13T20:33:00.584Z,21.13
2022-10-13T20:35:27.674Z,20.60
2022-10-13T20:37:54.349Z,22.48
2022-10-13T20:40:21.174Z,22.85
2022-10-13T20:42:52.399Z,25.00
2022-10-13T20:45:19.479Z,23.17
2022-10-13T20:47:47.022Z,24.20
2022-10-13T20:50:14.233Z,24.05
2022-10-13T20:52:40.865Z,24.50
2022-10-13T20:55:07.797Z,25.73
2022-10-13T20:57:34.450Z,24.55
2022-10-13T21:00:01.101Z,25.58
2022-10-13T21:02:28.057Z,24.02
2022-10-13T21:04:54.822Z,23.33
2022-10-13T21:07:21.684Z,23.67
2022-10-13T21:09:53.648Z,23.98
2022-10-13T21:12:20.968Z,24.83
2022-10-13T21:14:47.574Z,24.58
2022-10-13T21:17:14.158Z,29.40
2022-10-13T21:19:40.888Z,22.55
2022-10-13T21:22:07.465Z,23.98
2022-10-13T21:24:34.106Z,21.52
2022-10-13T21:27:00.819Z,20.02
2022-10-13T21:29:27.405Z,24.10
2022-10-13T21:31:53.989Z,22.67
2022-10-13T21:34:20.602Z,22.83
2022-10-13T21:36:47.258Z,23.02
2022-10-13T21:39:14.303Z,22.42
2022-10-13T21:41:41.019Z,22.27
2022-10-13T21:44:09.914Z,24.70
2022-10-13T21:46:36.546Z,23.02
2022-10-13T21:49:05.300Z,22.42
2022-10-13T21:51:34.193Z,21.95
2022-10-13T21:54:04.825Z,22.15
2022-10-13T21:56:32.783Z,22.95
2022-10-13T21:58:59.560Z,22.60
2022-10-13T22:01:26.425Z,23.45
2022-10-13T22:03:58.418Z,22.52
2022-10-13T22:06:26.001Z,23.48
2022-10-13T22:08:55.610Z,22.50
2022-10-13T22:11:24.699Z,22.80
2022-10-13T22:13:52.899Z,21.77
2022-10-13T22:16:22.404Z,23.35
2022-10-13T22:18:51.487Z,23.75
2022-10-13T22:21:23.928Z,22.42
2022-10-13T22:23:50.911Z,22.52
2022-10-13T22:26:18.541Z,22.73
2022-10-13T22:28:45.235Z,24.00
2022-10-13T22:31:13.464Z,24.23
2022-10-13T22:33:43.776Z,21.92
2022-10-13T22:36:12.275Z,23.02
2022-10-13T22:38:38.877Z,20.92
2022-10-13T22:41:06.739Z,22.35
2022-10-13T22:43:34.106Z,23.25
2022-10-13T22:46:02.133Z,22.17
2022-10-13T22:48:28.912Z,22.60
2022-10-13T22:50:55.523Z,20.85
2022-10-13T22:53:22.347Z,23.25
2022-10-13T22:55:48.923Z,23.90
2022-10-13T22:58:15.523Z,22.70
2022-10-13T23:00:42.106Z,23.15
2022-10-13T23:03:13.932Z,24.92
2022-10-13T23:05:42.578Z,23.08
2022-10-13T23:08:12.399Z,23.67
2022-10-13T23:10:39.032Z,24.55
2022-10-13T23:13:05.986Z,24.67
2022-10-13T23:15:32.838Z,24.58
2022-10-13T23:17:59.471Z,26.08
2022-10-13T23:20:26.081Z,23.60
2022-10-13T23:22:52.653Z,24.38
2022-10-13T23:25:21.787Z,24.05
2022-10-13T23:27:48.407Z,26.10
2022-10-13T23:30:15.133Z,24.65
2022-10-13T23:32:41.700Z,23.25
2022-10-13T23:35:08.661Z,23.42
2022-10-13T23:37:35.207Z,25.13
2022-10-13T23:40:01.849Z,24.33
2022-10-13T23:42:28.758Z,24.42
2022-10-13T23:44:55.344Z,22.70
2022-10-13T23:47:22.158Z,22.48
2022-10-13T23:49:48.971Z,23.58
2022-10-13T23:52:15.591Z,23.45
2022-10-13T23:54:42.167Z,24.98
2022-10-13T23:57:09.007Z,23.88
2022-10-13T23:59:35.563Z,26.58
